Strona główna
METAR-TAF:

METAR-TAF

Lotnisko :

Toussus-le-Noble, Francja

Szerokość geograficzna: 48-46N, Długość geograficzna: 002-06E, wysokość: 164 m

Aktualna obserwacja pogody

Raport powstał 41 minut temu, godzina 07:00 UTC
Wiatr 7 kt od północno-północny wschód, zmienny między północ i północny wschód
Temperatura 15°C
Wilgotność 63%
Ciśnienie 1031 hPa
Widzialność 10 km lub więcej
Brak chmur poniżej 1500 m i brak chmur cumulonimbus

METAR: LFPN 280700Z AUTO 02007KT 350V050 CAVOK 15/08 Q1031

czas: 09:41 (07:41 UTC)


TAF: brakujący

Obserwacja i prognoza pogody dla ponad 4000 lotnisk (raport METAR i TAF).

Dostępne stacje oznaczono żółtymi i czerwonymi punktami na mapie.

Najedź kursorem aby zobaczyć nazwę stacji.

Kliknij aby zobaczyć obserwacje i prognozy pogody.

Aby zmienić mapę: kliknij na zielony przycisk z czarnym krzyżykiem, aby powiększyć; na zielony przycisk z myślnikiem, aby pomniejszyć; na zielone strzałki, aby przejść do map sąsiednich.


METAR-TAF: